Garden City Regional Airport
KGCK : now visible

Airfield :











YOU CAN JOIN US ON...

 
LOGIN :

Register | Disclaimer

   EN    FR    IT 

 









Legend :    VFR   Marginal VFR   IFR   Intensive IFR   Very Intensive IFR
Visi :
Ceiling :
>= 8 km
>= 3000ft
5 to 8 km
1000 to 3000 ft
1500m to 5 km
500 to 1000 ft
800 to 1500m
200 to 500 ft
< 800m
< 200 ft
Symbols :   Thunderstorms  Fog  Heavy snow  Heavy precipitations  Wind > 20 kt






- Airport Elevation : 2891 ft
- IATA code : GCK


KGCK - Garden City Regional

CURRENT METAR :
  • 090654Z AUTO 20008KT 10SM CLR 22/16 A2997 RMK AO2 SLP109 T02220161

EXPIRED METARs :
  • 090554Z AUTO 14004KT 10SM CLR 22/17 A2997 RMK AO2 SLP109 T02220172 10333 20217 403500178 51016
  • 090454Z AUTO 19008KT 10SM CLR 23/17 A2996 RMK AO2 SLP108 T02280172

TAF KGCK
Valid from the 09 at 06:00 until the 10 at 06:00 UTC


090520Z 0906/1006 20010KT P6SM SCT250 WS020/24045KT
FM091000 21011KT P6SM SCT250
FM091800 19018G26KT P6SM SKC
FM100100 17015KT P6SM SCT150
KZKC FIR / North America



MET'MAP, your aeronautical weather chart ! - Copyright ORBIFLY December 2007 - Disclaimer

ORBIFLY MET'MAP TEAM :

Programming & Development : Alexandra Zaïnal
Concept & original design : Baudouin d'Aumeries
Assistance for programming : Marc-Olivier Méhu
Technical & hardware support : Manuel Goepfert

Contact : metmap@orbifly.com




SOURCES & CREDITS :

   NOAA       Earth
Advisory